sensor_id;sensor_type;location;lat;lon;timestamp;temperature;humidity
15143;DHT22;7672;50.834;6.286;2022-10-24T00:01:17;19.20;99.90
15143;DHT22;7672;50.834;6.286;2022-10-24T00:03:45;19.30;99.90
15143;DHT22;7672;50.834;6.286;2022-10-24T00:06:14;19.30;99.90
15143;DHT22;7672;50.834;6.286;2022-10-24T00:08:42;19.30;99.90
15143;DHT22;7672;50.834;6.286;2022-10-24T00:11:15;19.40;99.90
15143;DHT22;7672;50.834;6.286;2022-10-24T00:13:49;19.40;99.90
15143;DHT22;7672;50.834;6.286;2022-10-24T00:16:16;19.40;99.90
15143;DHT22;7672;50.834;6.286;2022-10-24T00:18:44;19.40;99.90
15143;DHT22;7672;50.834;6.286;2022-10-24T00:21:11;19.50;99.90
15143;DHT22;7672;50.834;6.286;2022-10-24T00:23:38;19.50;99.90
15143;DHT22;7672;50.834;6.286;2022-10-24T00:26:06;19.50;99.90
15143;DHT22;7672;50.834;6.286;2022-10-24T00:28:35;19.50;99.90
15143;DHT22;7672;50.834;6.286;2022-10-24T00:31:04;19.50;99.90
15143;DHT22;7672;50.834;6.286;2022-10-24T00:33:33;19.60;99.90
15143;DHT22;7672;50.834;6.286;2022-10-24T00:36:00;19.60;99.90
15143;DHT22;7672;50.834;6.286;2022-10-24T00:38:27;19.60;99.90
15143;DHT22;7672;50.834;6.286;2022-10-24T00:40:53;19.60;99.90
15143;DHT22;7672;50.834;6.286;2022-10-24T00:43:23;19.60;99.90
15143;DHT22;7672;50.834;6.286;2022-10-24T00:45:55;19.70;99.90
15143;DHT22;7672;50.834;6.286;2022-10-24T00:48:24;19.70;99.90
15143;DHT22;7672;50.834;6.286;2022-10-24T00:51:13;19.70;99.90
15143;DHT22;7672;50.834;6.286;2022-10-24T00:53:49;19.70;99.90
15143;DHT22;7672;50.834;6.286;2022-10-24T00:56:22;19.70;99.90
15143;DHT22;7672;50.834;6.286;2022-10-24T00:58:53;19.70;99.90
15143;DHT22;7672;50.834;6.286;2022-10-24T01:01:24;19.70;99.90
15143;DHT22;7672;50.834;6.286;2022-10-24T01:03:51;19.70;99.90
15143;DHT22;7672;50.834;6.286;2022-10-24T01:06:35;19.70;99.90
15143;DHT22;7672;50.834;6.286;2022-10-24T01:09:48;19.70;99.90
15143;DHT22;7672;50.834;6.286;2022-10-24T01:12:41;19.70;99.90
15143;DHT22;7672;50.834;6.286;2022-10-24T01:15:25;19.70;99.90
15143;DHT22;7672;50.834;6.286;2022-10-24T01:21:37;19.70;99.90
15143;DHT22;7672;50.834;6.286;2022-10-24T01:28:18;19.70;99.90
15143;DHT22;7672;50.834;6.286;2022-10-24T01:31:06;19.70;99.90
15143;DHT22;7672;50.834;6.286;2022-10-24T01:33:40;19.70;99.90
15143;DHT22;7672;50.834;6.286;2022-10-24T01:36:28;19.70;99.90
15143;DHT22;7672;50.834;6.286;2022-10-24T01:39:05;19.70;99.90
15143;DHT22;7672;50.834;6.286;2022-10-24T01:41:39;19.70;99.90
15143;DHT22;7672;50.834;6.286;2022-10-24T01:44:21;19.70;99.90
15143;DHT22;7672;50.834;6.286;2022-10-24T01:46:54;19.70;99.90
15143;DHT22;7672;50.834;6.286;2022-10-24T01:49:36;19.70;99.90
15143;DHT22;7672;50.834;6.286;2022-10-24T01:52:09;19.70;99.90
15143;DHT22;7672;50.834;6.286;2022-10-24T01:54:45;19.70;99.90
15143;DHT22;7672;50.834;6.286;2022-10-24T01:57:14;19.80;99.90
15143;DHT22;7672;50.834;6.286;2022-10-24T01:59:44;19.80;99.90
15143;DHT22;7672;50.834;6.286;2022-10-24T02:02:34;19.70;99.90
15143;DHT22;7672;50.834;6.286;2022-10-24T02:07:42;19.80;99.90
15143;DHT22;7672;50.834;6.286;2022-10-24T02:10:20;19.80;99.90
15143;DHT22;7672;50.834;6.286;2022-10-24T02:12:56;19.70;99.90
15143;DHT22;7672;50.834;6.286;2022-10-24T02:15:35;19.80;99.90
15143;DHT22;7672;50.834;6.286;2022-10-24T02:18:07;19.80;99.90
15143;DHT22;7672;50.834;6.286;2022-10-24T02:20:49;19.80;99.90
15143;DHT22;7672;50.834;6.286;2022-10-24T02:23:41;19.80;99.90
15143;DHT22;7672;50.834;6.286;2022-10-24T02:26:23;19.80;99.90
15143;DHT22;7672;50.834;6.286;2022-10-24T02:29:00;19.80;99.90
15143;DHT22;7672;50.834;6.286;2022-10-24T02:31:35;19.80;99.90
15143;DHT22;7672;50.834;6.286;2022-10-24T02:34:07;19.80;99.90
15143;DHT22;7672;50.834;6.286;2022-10-24T02:36:36;19.80;99.90
15143;DHT22;7672;50.834;6.286;2022-10-24T02:39:07;19.80;99.90
15143;DHT22;7672;50.834;6.286;2022-10-24T02:41:38;19.80;99.90
15143;DHT22;7672;50.834;6.286;2022-10-24T02:44:08;19.70;99.90
15143;DHT22;7672;50.834;6.286;2022-10-24T02:46:39;19.70;99.90
15143;DHT22;7672;50.834;6.286;2022-10-24T02:49:08;19.70;99.90
15143;DHT22;7672;50.834;6.286;2022-10-24T02:51:38;19.80;99.90
15143;DHT22;7672;50.834;6.286;2022-10-24T02:54:08;19.70;99.90
15143;DHT22;7672;50.834;6.286;2022-10-24T02:56:39;19.70;99.90
15143;DHT22;7672;50.834;6.286;2022-10-24T02:59:11;19.70;99.90
15143;DHT22;7672;50.834;6.286;2022-10-24T03:01:38;19.70;99.90
15143;DHT22;7672;50.834;6.286;2022-10-24T03:04:05;19.60;99.90
15143;DHT22;7672;50.834;6.286;2022-10-24T03:06:32;19.70;99.90
15143;DHT22;7672;50.834;6.286;2022-10-24T03:08:59;19.60;99.90
15143;DHT22;7672;50.834;6.286;2022-10-24T03:11:26;19.50;99.90
15143;DHT22;7672;50.834;6.286;2022-10-24T03:13:52;19.60;99.90
15143;DHT22;7672;50.834;6.286;2022-10-24T03:16:19;19.60;99.90
15143;DHT22;7672;50.834;6.286;2022-10-24T03:18:46;19.50;99.90
15143;DHT22;7672;50.834;6.286;2022-10-24T03:21:13;19.50;99.90
15143;DHT22;7672;50.834;6.286;2022-10-24T03:23:39;19.50;99.90
15143;DHT22;7672;50.834;6.286;2022-10-24T03:26:06;19.50;99.90
15143;DHT22;7672;50.834;6.286;2022-10-24T03:28:33;19.40;99.90
15143;DHT22;7672;50.834;6.286;2022-10-24T03:31:00;19.40;99.90
15143;DHT22;7672;50.834;6.286;2022-10-24T03:33:27;19.40;99.90
15143;DHT22;7672;50.834;6.286;2022-10-24T03:35:54;19.40;99.90
15143;DHT22;7672;50.834;6.286;2022-10-24T03:38:22;19.40;99.90
15143;DHT22;7672;50.834;6.286;2022-10-24T03:40:49;19.40;99.90
15143;DHT22;7672;50.834;6.286;2022-10-24T03:43:17;19.60;99.90
15143;DHT22;7672;50.834;6.286;2022-10-24T03:45:44;19.30;99.90
15143;DHT22;7672;50.834;6.286;2022-10-24T03:48:11;19.40;99.90
15143;DHT22;7672;50.834;6.286;2022-10-24T03:50:38;19.40;99.90
15143;DHT22;7672;50.834;6.286;2022-10-24T03:53:05;19.40;99.90
15143;DHT22;7672;50.834;6.286;2022-10-24T03:55:32;19.40;99.90
15143;DHT22;7672;50.834;6.286;2022-10-24T03:58:00;19.40;99.90
15143;DHT22;7672;50.834;6.286;2022-10-24T04:00:27;19.40;99.90
15143;DHT22;7672;50.834;6.286;2022-10-24T04:02:54;19.40;99.90
15143;DHT22;7672;50.834;6.286;2022-10-24T04:05:21;19.40;99.90
15143;DHT22;7672;50.834;6.286;2022-10-24T04:07:48;19.40;99.90
15143;DHT22;7672;50.834;6.286;2022-10-24T04:10:15;19.30;99.90
15143;DHT22;7672;50.834;6.286;2022-10-24T04:12:42;19.30;99.90
15143;DHT22;7672;50.834;6.286;2022-10-24T04:15:09;19.30;99.90
15143;DHT22;7672;50.834;6.286;2022-10-24T04:17:36;19.30;99.90
15143;DHT22;7672;50.834;6.286;2022-10-24T04:20:04;19.30;99.90
15143;DHT22;7672;50.834;6.286;2022-10-24T04:22:31;19.30;99.90
15143;DHT22;7672;50.834;6.286;2022-10-24T04:24:58;19.30;99.90
15143;DHT22;7672;50.834;6.286;2022-10-24T04:27:25;19.30;99.90
15143;DHT22;7672;50.834;6.286;2022-10-24T04:29:52;19.30;99.90
15143;DHT22;7672;50.834;6.286;2022-10-24T04:32:18;19.30;99.90
15143;DHT22;7672;50.834;6.286;2022-10-24T04:34:45;19.20;99.90
15143;DHT22;7672;50.834;6.286;2022-10-24T04:37:12;19.30;99.90
15143;DHT22;7672;50.834;6.286;2022-10-24T04:39:39;19.20;99.90
15143;DHT22;7672;50.834;6.286;2022-10-24T04:42:06;19.20;99.90
15143;DHT22;7672;50.834;6.286;2022-10-24T04:44:32;19.20;99.90
15143;DHT22;7672;50.834;6.286;2022-10-24T04:46:59;19.20;99.90
15143;DHT22;7672;50.834;6.286;2022-10-24T04:49:26;19.20;99.90
15143;DHT22;7672;50.834;6.286;2022-10-24T04:51:53;19.20;99.90
15143;DHT22;7672;50.834;6.286;2022-10-24T04:54:19;19.10;99.90
15143;DHT22;7672;50.834;6.286;2022-10-24T04:56:46;19.20;99.90
15143;DHT22;7672;50.834;6.286;2022-10-24T04:59:13;19.10;99.90
15143;DHT22;7672;50.834;6.286;2022-10-24T05:01:40;19.10;99.90
15143;DHT22;7672;50.834;6.286;2022-10-24T05:04:07;19.00;99.90
15143;DHT22;7672;50.834;6.286;2022-10-24T05:06:33;19.00;99.90
15143;DHT22;7672;50.834;6.286;2022-10-24T05:09:00;19.00;99.90
15143;DHT22;7672;50.834;6.286;2022-10-24T05:11:27;19.00;99.90
15143;DHT22;7672;50.834;6.286;2022-10-24T05:13:54;18.90;99.90
15143;DHT22;7672;50.834;6.286;2022-10-24T05:16:20;18.90;99.90
15143;DHT22;7672;50.834;6.286;2022-10-24T05:18:47;18.90;99.90
15143;DHT22;7672;50.834;6.286;2022-10-24T05:21:15;18.90;99.90
15143;DHT22;7672;50.834;6.286;2022-10-24T05:23:41;18.90;99.90
15143;DHT22;7672;50.834;6.286;2022-10-24T05:26:08;18.90;99.90
15143;DHT22;7672;50.834;6.286;2022-10-24T05:28:35;18.80;99.90
15143;DHT22;7672;50.834;6.286;2022-10-24T05:31:02;18.80;99.90
15143;DHT22;7672;50.834;6.286;2022-10-24T05:33:29;18.80;99.90
15143;DHT22;7672;50.834;6.286;2022-10-24T05:35:56;18.70;99.90
15143;DHT22;7672;50.834;6.286;2022-10-24T05:38:23;18.70;99.90
15143;DHT22;7672;50.834;6.286;2022-10-24T05:40:50;18.70;99.90
15143;DHT22;7672;50.834;6.286;2022-10-24T05:43:17;18.70;99.90
15143;DHT22;7672;50.834;6.286;2022-10-24T05:45:44;18.70;99.90
15143;DHT22;7672;50.834;6.286;2022-10-24T05:48:14;18.60;99.90
15143;DHT22;7672;50.834;6.286;2022-10-24T05:50:42;18.60;99.90
15143;DHT22;7672;50.834;6.286;2022-10-24T05:53:08;18.60;99.90
15143;DHT22;7672;50.834;6.286;2022-10-24T05:55:35;18.60;99.90
15143;DHT22;7672;50.834;6.286;2022-10-24T05:58:02;18.50;99.90
15143;DHT22;7672;50.834;6.286;2022-10-24T06:00:29;18.60;99.90
15143;DHT22;7672;50.834;6.286;2022-10-24T06:02:59;18.50;99.90
15143;DHT22;7672;50.834;6.286;2022-10-24T06:05:26;18.50;99.90
15143;DHT22;7672;50.834;6.286;2022-10-24T06:07:53;18.50;99.90
15143;DHT22;7672;50.834;6.286;2022-10-24T06:10:20;18.50;99.90
15143;DHT22;7672;50.834;6.286;2022-10-24T06:12:47;18.50;99.90
15143;DHT22;7672;50.834;6.286;2022-10-24T06:15:14;18.40;99.90
15143;DHT22;7672;50.834;6.286;2022-10-24T06:17:41;18.30;99.90
15143;DHT22;7672;50.834;6.286;2022-10-24T06:20:08;18.30;99.90
15143;DHT22;7672;50.834;6.286;2022-10-24T06:22:36;18.30;99.90
15143;DHT22;7672;50.834;6.286;2022-10-24T06:25:03;18.40;99.90
15143;DHT22;7672;50.834;6.286;2022-10-24T06:27:30;18.30;99.90
15143;DHT22;7672;50.834;6.286;2022-10-24T06:29:57;18.40;99.90
15143;DHT22;7672;50.834;6.286;2022-10-24T06:32:24;18.40;99.90
15143;DHT22;7672;50.834;6.286;2022-10-24T06:34:50;18.40;99.90
15143;DHT22;7672;50.834;6.286;2022-10-24T06:37:17;18.40;99.90
15143;DHT22;7672;50.834;6.286;2022-10-24T06:39:44;18.40;99.90
15143;DHT22;7672;50.834;6.286;2022-10-24T06:42:11;18.40;99.90
15143;DHT22;7672;50.834;6.286;2022-10-24T06:44:38;18.40;99.90
15143;DHT22;7672;50.834;6.286;2022-10-24T06:47:05;18.40;99.90
15143;DHT22;7672;50.834;6.286;2022-10-24T06:49:32;18.50;99.90
15143;DHT22;7672;50.834;6.286;2022-10-24T06:51:59;18.50;99.90
15143;DHT22;7672;50.834;6.286;2022-10-24T06:54:26;18.50;99.90
15143;DHT22;7672;50.834;6.286;2022-10-24T06:56:56;18.50;99.90
15143;DHT22;7672;50.834;6.286;2022-10-24T06:59:23;18.50;99.90
15143;DHT22;7672;50.834;6.286;2022-10-24T07:01:50;18.50;99.90
15143;DHT22;7672;50.834;6.286;2022-10-24T07:04:17;18.50;99.90
15143;DHT22;7672;50.834;6.286;2022-10-24T07:06:44;18.60;99.90
15143;DHT22;7672;50.834;6.286;2022-10-24T07:09:12;18.60;99.90
15143;DHT22;7672;50.834;6.286;2022-10-24T07:11:42;18.70;99.90
15143;DHT22;7672;50.834;6.286;2022-10-24T07:14:09;18.70;99.90
15143;DHT22;7672;50.834;6.286;2022-10-24T07:16:37;18.80;99.90
15143;DHT22;7672;50.834;6.286;2022-10-24T07:19:04;18.90;99.90
15143;DHT22;7672;50.834;6.286;2022-10-24T07:21:32;19.00;99.90
15143;DHT22;7672;50.834;6.286;2022-10-24T07:24:00;19.00;99.90
15143;DHT22;7672;50.834;6.286;2022-10-24T07:26:29;19.10;99.90
15143;DHT22;7672;50.834;6.286;2022-10-24T07:28:59;19.20;99.90
15143;DHT22;7672;50.834;6.286;2022-10-24T07:31:30;19.30;99.90
15143;DHT22;7672;50.834;6.286;2022-10-24T07:34:01;19.40;99.90
15143;DHT22;7672;50.834;6.286;2022-10-24T07:36:29;19.50;99.90
15143;DHT22;7672;50.834;6.286;2022-10-24T07:38:57;19.70;99.90
15143;DHT22;7672;50.834;6.286;2022-10-24T07:41:28;19.80;99.90
15143;DHT22;7672;50.834;6.286;2022-10-24T07:43:58;19.90;99.90
15143;DHT22;7672;50.834;6.286;2022-10-24T07:46:27;20.20;99.90
15143;DHT22;7672;50.834;6.286;2022-10-24T07:48:54;20.40;99.90
15143;DHT22;7672;50.834;6.286;2022-10-24T07:51:21;20.50;99.90
15143;DHT22;7672;50.834;6.286;2022-10-24T07:53:49;20.80;99.90
15143;DHT22;7672;50.834;6.286;2022-10-24T07:56:16;20.90;99.90
15143;DHT22;7672;50.834;6.286;2022-10-24T07:58:44;21.10;99.90
15143;DHT22;7672;50.834;6.286;2022-10-24T08:01:15;21.30;99.90
15143;DHT22;7672;50.834;6.286;2022-10-24T08:03:44;21.60;99.90
15143;DHT22;7672;50.834;6.286;2022-10-24T08:06:15;21.90;99.90
15143;DHT22;7672;50.834;6.286;2022-10-24T08:08:44;22.10;99.90
15143;DHT22;7672;50.834;6.286;2022-10-24T08:11:17;22.40;99.90
15143;DHT22;7672;50.834;6.286;2022-10-24T08:13:48;22.70;99.90
15143;DHT22;7672;50.834;6.286;2022-10-24T08:16:17;23.00;99.90
15143;DHT22;7672;50.834;6.286;2022-10-24T08:18:50;23.30;99.90
15143;DHT22;7672;50.834;6.286;2022-10-24T08:21:20;23.50;99.90
15143;DHT22;7672;50.834;6.286;2022-10-24T08:23:50;23.80;99.90
15143;DHT22;7672;50.834;6.286;2022-10-24T08:26:20;24.00;99.90
15143;DHT22;7672;50.834;6.286;2022-10-24T08:28:48;24.20;99.90
15143;DHT22;7672;50.834;6.286;2022-10-24T08:31:19;24.30;99.90
15143;DHT22;7672;50.834;6.286;2022-10-24T08:33:50;24.50;99.90
15143;DHT22;7672;50.834;6.286;2022-10-24T08:36:27;24.70;99.90
15143;DHT22;7672;50.834;6.286;2022-10-24T08:38:56;24.90;99.90
15143;DHT22;7672;50.834;6.286;2022-10-24T08:41:32;25.20;99.90
15143;DHT22;7672;50.834;6.286;2022-10-24T08:44:32;25.40;99.90
15143;DHT22;7672;50.834;6.286;2022-10-24T08:47:39;25.70;99.90
15143;DHT22;7672;50.834;6.286;2022-10-24T08:50:29;26.00;99.90
15143;DHT22;7672;50.834;6.286;2022-10-24T08:53:05;26.30;99.90
15143;DHT22;7672;50.834;6.286;2022-10-24T08:55:47;26.60;99.90
15143;DHT22;7672;50.834;6.286;2022-10-24T08:58:39;26.90;99.90
15143;DHT22;7672;50.834;6.286;2022-10-24T09:01:26;27.10;99.90
15143;DHT22;7672;50.834;6.286;2022-10-24T09:03:59;27.20;99.90
15143;DHT22;7672;50.834;6.286;2022-10-24T09:06:31;27.20;99.90
15143;DHT22;7672;50.834;6.286;2022-10-24T09:09:02;27.30;99.90
15143;DHT22;7672;50.834;6.286;2022-10-24T09:11:58;27.20;99.90
15143;DHT22;7672;50.834;6.286;2022-10-24T09:14:35;27.20;99.90
15143;DHT22;7672;50.834;6.286;2022-10-24T09:17:20;27.30;99.90
15143;DHT22;7672;50.834;6.286;2022-10-24T09:20:19;27.40;99.90
15143;DHT22;7672;50.834;6.286;2022-10-24T09:22:47;27.50;99.90
15143;DHT22;7672;50.834;6.286;2022-10-24T09:25:16;27.60;99.90
15143;DHT22;7672;50.834;6.286;2022-10-24T09:27:47;27.50;99.90
15143;DHT22;7672;50.834;6.286;2022-10-24T09:30:18;27.50;99.90
15143;DHT22;7672;50.834;6.286;2022-10-24T09:32:48;27.30;99.90
15143;DHT22;7672;50.834;6.286;2022-10-24T09:35:21;27.10;99.90
15143;DHT22;7672;50.834;6.286;2022-10-24T09:37:52;27.00;99.90
15143;DHT22;7672;50.834;6.286;2022-10-24T09:40:32;26.90;99.90
15143;DHT22;7672;50.834;6.286;2022-10-24T09:43:18;26.70;99.90
15143;DHT22;7672;50.834;6.286;2022-10-24T09:46:01;26.70;99.90
15143;DHT22;7672;50.834;6.286;2022-10-24T09:48:44;26.60;99.90
15143;DHT22;7672;50.834;6.286;2022-10-24T09:51:24;26.60;99.90
15143;DHT22;7672;50.834;6.286;2022-10-24T09:54:02;26.70;99.90
15143;DHT22;7672;50.834;6.286;2022-10-24T09:56:41;26.50;99.90
15143;DHT22;7672;50.834;6.286;2022-10-24T09:59:37;26.50;99.90
15143;DHT22;7672;50.834;6.286;2022-10-24T10:02:24;26.40;99.90
15143;DHT22;7672;50.834;6.286;2022-10-24T10:07:30;26.10;99.90
15143;DHT22;7672;50.834;6.286;2022-10-24T10:13:02;25.70;99.90
15143;DHT22;7672;50.834;6.286;2022-10-24T10:15:36;25.40;99.90
15143;DHT22;7672;50.834;6.286;2022-10-24T10:21:16;24.90;99.90
15143;DHT22;7672;50.834;6.286;2022-10-24T10:23:52;24.70;99.90
15143;DHT22;7672;50.834;6.286;2022-10-24T10:26:27;24.60;99.90
15143;DHT22;7672;50.834;6.286;2022-10-24T10:29:02;24.50;99.90
15143;DHT22;7672;50.834;6.286;2022-10-24T10:31:43;24.40;99.90
15143;DHT22;7672;50.834;6.286;2022-10-24T10:34:30;24.30;99.90
15143;DHT22;7672;50.834;6.286;2022-10-24T10:37:24;24.20;99.90
15143;DHT22;7672;50.834;6.286;2022-10-24T10:46:41;24.90;99.90
15143;DHT22;7672;50.834;6.286;2022-10-24T10:51:56;25.50;99.90
15143;DHT22;7672;50.834;6.286;2022-10-24T10:54:47;25.50;99.90
15143;DHT22;7672;50.834;6.286;2022-10-24T10:57:23;25.60;99.90
15143;DHT22;7672;50.834;6.286;2022-10-24T11:00:23;25.50;99.90
15143;DHT22;7672;50.834;6.286;2022-10-24T11:06:08;25.40;99.90
15143;DHT22;7672;50.834;6.286;2022-10-24T11:12:01;25.20;99.90
15143;DHT22;7672;50.834;6.286;2022-10-24T11:14:40;25.10;99.90
15143;DHT22;7672;50.834;6.286;2022-10-24T11:17:27;25.00;99.90
15143;DHT22;7672;50.834;6.286;2022-10-24T11:20:18;24.80;99.90
15143;DHT22;7672;50.834;6.286;2022-10-24T11:23:03;24.70;99.90
15143;DHT22;7672;50.834;6.286;2022-10-24T11:31:17;24.30;99.90
15143;DHT22;7672;50.834;6.286;2022-10-24T11:40:00;24.10;99.90
15143;DHT22;7672;50.834;6.286;2022-10-24T11:48:43;23.80;99.90
15143;DHT22;7672;50.834;6.286;2022-10-24T11:54:16;23.80;99.90
15143;DHT22;7672;50.834;6.286;2022-10-24T11:56:54;23.70;99.90
15143;DHT22;7672;50.834;6.286;2022-10-24T11:59:24;23.60;99.90
15143;DHT22;7672;50.834;6.286;2022-10-24T12:13:25;23.10;99.90
15143;DHT22;7672;50.834;6.286;2022-10-24T12:19:09;22.90;99.90
15143;DHT22;7672;50.834;6.286;2022-10-24T12:21:45;23.10;99.90
15143;DHT22;7672;50.834;6.286;2022-10-24T12:24:31;22.50;99.90
15143;DHT22;7672;50.834;6.286;2022-10-24T12:27:03;22.70;99.90
15143;DHT22;7672;50.834;6.286;2022-10-24T12:29:34;22.70;99.90
15143;DHT22;7672;50.834;6.286;2022-10-24T12:32:29;22.70;99.90
15143;DHT22;7672;50.834;6.286;2022-10-24T12:37:57;22.60;99.90
15143;DHT22;7672;50.834;6.286;2022-10-24T12:40:53;22.60;99.90
15143;DHT22;7672;50.834;6.286;2022-10-24T12:43:39;22.60;99.90
15143;DHT22;7672;50.834;6.286;2022-10-24T12:51:28;22.60;99.90
15143;DHT22;7672;50.834;6.286;2022-10-24T12:54:12;22.60;99.90
15143;DHT22;7672;50.834;6.286;2022-10-24T13:14:46;22.50;99.90
15143;DHT22;7672;50.834;6.286;2022-10-24T13:17:46;22.50;99.90
15143;DHT22;7672;50.834;6.286;2022-10-24T13:20:27;22.40;99.90
15143;DHT22;7672;50.834;6.286;2022-10-24T13:23:22;22.50;99.90
15143;DHT22;7672;50.834;6.286;2022-10-24T13:25:54;22.30;99.90
15143;DHT22;7672;50.834;6.286;2022-10-24T13:33:44;22.20;99.90
15143;DHT22;7672;50.834;6.286;2022-10-24T13:36:15;22.20;99.90
15143;DHT22;7672;50.834;6.286;2022-10-24T13:38:53;22.20;99.90
15143;DHT22;7672;50.834;6.286;2022-10-24T13:41:48;22.30;99.90
15143;DHT22;7672;50.834;6.286;2022-10-24T13:44:43;22.20;99.90
15143;DHT22;7672;50.834;6.286;2022-10-24T13:47:20;22.10;99.90
15143;DHT22;7672;50.834;6.286;2022-10-24T13:50:12;22.10;99.90
15143;DHT22;7672;50.834;6.286;2022-10-24T13:52:48;22.10;99.90
15143;DHT22;7672;50.834;6.286;2022-10-24T13:56:07;22.10;99.90
15143;DHT22;7672;50.834;6.286;2022-10-24T13:58:24;22.00;99.90
15143;DHT22;7672;50.834;6.286;2022-10-24T14:00:56;22.00;99.90
15143;DHT22;7672;50.834;6.286;2022-10-24T14:03:28;22.00;99.90
15143;DHT22;7672;50.834;6.286;2022-10-24T14:05:59;22.10;99.90
15143;DHT22;7672;50.834;6.286;2022-10-24T14:08:34;22.10;99.90
15143;DHT22;7672;50.834;6.286;2022-10-24T14:11:07;22.10;99.90
15143;DHT22;7672;50.834;6.286;2022-10-24T14:13:43;22.10;99.90
15143;DHT22;7672;50.834;6.286;2022-10-24T14:16:15;22.10;99.90
15143;DHT22;7672;50.834;6.286;2022-10-24T14:18:42;22.20;99.90
15143;DHT22;7672;50.834;6.286;2022-10-24T14:21:17;22.10;99.90
15143;DHT22;7672;50.834;6.286;2022-10-24T14:23:55;22.00;99.90
15143;DHT22;7672;50.834;6.286;2022-10-24T14:26:24;22.00;99.90
15143;DHT22;7672;50.834;6.286;2022-10-24T14:28:53;22.00;99.90
15143;DHT22;7672;50.834;6.286;2022-10-24T14:31:33;21.90;99.90
15143;DHT22;7672;50.834;6.286;2022-10-24T14:34:03;21.80;99.90
15143;DHT22;7672;50.834;6.286;2022-10-24T14:36:33;21.80;99.90
15143;DHT22;7672;50.834;6.286;2022-10-24T14:39:04;22.20;99.90
15143;DHT22;7672;50.834;6.286;2022-10-24T14:41:39;22.00;99.90
15143;DHT22;7672;50.834;6.286;2022-10-24T14:44:06;21.70;99.90
15143;DHT22;7672;50.834;6.286;2022-10-24T14:46:41;21.70;99.90
15143;DHT22;7672;50.834;6.286;2022-10-24T14:52:10;21.60;99.90
15143;DHT22;7672;50.834;6.286;2022-10-24T14:57:39;21.50;99.90
15143;DHT22;7672;50.834;6.286;2022-10-24T15:00:38;21.60;99.90
15143;DHT22;7672;50.834;6.286;2022-10-24T15:03:05;21.40;99.90
15143;DHT22;7672;50.834;6.286;2022-10-24T15:05:33;21.40;99.90
15143;DHT22;7672;50.834;6.286;2022-10-24T15:11:15;21.30;99.90
15143;DHT22;7672;50.834;6.286;2022-10-24T15:13:51;21.20;99.90
15143;DHT22;7672;50.834;6.286;2022-10-24T15:16:35;21.10;99.90
15143;DHT22;7672;50.834;6.286;2022-10-24T15:19:05;21.10;99.90
15143;DHT22;7672;50.834;6.286;2022-10-24T15:21:45;21.00;99.90
15143;DHT22;7672;50.834;6.286;2022-10-24T15:24:23;21.10;99.90
15143;DHT22;7672;50.834;6.286;2022-10-24T15:26:52;21.30;99.90
15143;DHT22;7672;50.834;6.286;2022-10-24T15:29:34;21.00;99.90
15143;DHT22;7672;50.834;6.286;2022-10-24T15:32:01;20.90;99.90
15143;DHT22;7672;50.834;6.286;2022-10-24T15:34:27;20.90;99.90
15143;DHT22;7672;50.834;6.286;2022-10-24T15:36:58;20.90;99.90
15143;DHT22;7672;50.834;6.286;2022-10-24T15:39:24;20.80;99.90
15143;DHT22;7672;50.834;6.286;2022-10-24T15:41:52;20.70;99.90
15143;DHT22;7672;50.834;6.286;2022-10-24T15:44:24;20.70;99.90
15143;DHT22;7672;50.834;6.286;2022-10-24T15:46:53;20.50;99.90
15143;DHT22;7672;50.834;6.286;2022-10-24T15:49:21;20.60;99.90
15143;DHT22;7672;50.834;6.286;2022-10-24T15:51:48;20.60;99.90
15143;DHT22;7672;50.834;6.286;2022-10-24T15:54:18;20.40;99.90
15143;DHT22;7672;50.834;6.286;2022-10-24T15:56:47;20.50;99.90
15143;DHT22;7672;50.834;6.286;2022-10-24T15:59:15;20.40;99.90
15143;DHT22;7672;50.834;6.286;2022-10-24T16:01:54;20.20;99.90
15143;DHT22;7672;50.834;6.286;2022-10-24T16:04:27;20.30;99.90
15143;DHT22;7672;50.834;6.286;2022-10-24T16:06:54;20.30;99.90
15143;DHT22;7672;50.834;6.286;2022-10-24T16:09:24;20.30;99.90
15143;DHT22;7672;50.834;6.286;2022-10-24T16:11:56;20.10;99.90
15143;DHT22;7672;50.834;6.286;2022-10-24T16:14:23;20.10;99.90
15143;DHT22;7672;50.834;6.286;2022-10-24T16:16:53;20.10;99.90
15143;DHT22;7672;50.834;6.286;2022-10-24T16:19:24;20.00;99.90
15143;DHT22;7672;50.834;6.286;2022-10-24T16:21:53;20.00;99.90
15143;DHT22;7672;50.834;6.286;2022-10-24T16:24:25;19.90;99.90
15143;DHT22;7672;50.834;6.286;2022-10-24T16:26:52;19.80;99.90
15143;DHT22;7672;50.834;6.286;2022-10-24T16:29:19;19.70;99.90
15143;DHT22;7672;50.834;6.286;2022-10-24T16:31:46;20.00;99.90
15143;DHT22;7672;50.834;6.286;2022-10-24T16:34:14;19.90;99.90
15143;DHT22;7672;50.834;6.286;2022-10-24T16:36:41;20.10;99.90
15143;DHT22;7672;50.834;6.286;2022-10-24T16:39:08;19.70;99.90
15143;DHT22;7672;50.834;6.286;2022-10-24T16:41:35;19.60;99.90
15143;DHT22;7672;50.834;6.286;2022-10-24T16:44:02;19.70;99.90
15143;DHT22;7672;50.834;6.286;2022-10-24T16:46:29;19.60;99.90
15143;DHT22;7672;50.834;6.286;2022-10-24T16:48:56;19.80;99.90
15143;DHT22;7672;50.834;6.286;2022-10-24T16:51:26;19.50;99.90
15143;DHT22;7672;50.834;6.286;2022-10-24T16:53:59;19.50;99.90
15143;DHT22;7672;50.834;6.286;2022-10-24T16:56:28;19.40;99.90
15143;DHT22;7672;50.834;6.286;2022-10-24T16:58:56;19.80;99.90
15143;DHT22;7672;50.834;6.286;2022-10-24T17:01:23;19.50;99.90
15143;DHT22;7672;50.834;6.286;2022-10-24T17:03:52;19.40;99.90
15143;DHT22;7672;50.834;6.286;2022-10-24T17:06:19;19.30;99.90
15143;DHT22;7672;50.834;6.286;2022-10-24T17:08:46;19.30;99.90
15143;DHT22;7672;50.834;6.286;2022-10-24T17:11:13;19.30;99.90
15143;DHT22;7672;50.834;6.286;2022-10-24T17:14:00;19.30;99.90
15143;DHT22;7672;50.834;6.286;2022-10-24T17:16:27;19.30;99.90
15143;DHT22;7672;50.834;6.286;2022-10-24T17:18:54;19.30;99.90
15143;DHT22;7672;50.834;6.286;2022-10-24T17:21:40;19.20;99.90
15143;DHT22;7672;50.834;6.286;2022-10-24T17:24:11;19.20;99.90
15143;DHT22;7672;50.834;6.286;2022-10-24T17:26:40;19.20;99.90
15143;DHT22;7672;50.834;6.286;2022-10-24T17:29:11;19.20;99.90
15143;DHT22;7672;50.834;6.286;2022-10-24T17:31:43;19.10;99.90
15143;DHT22;7672;50.834;6.286;2022-10-24T17:34:10;19.10;99.90
15143;DHT22;7672;50.834;6.286;2022-10-24T17:36:37;19.20;99.90
15143;DHT22;7672;50.834;6.286;2022-10-24T17:39:18;19.00;99.90
15143;DHT22;7672;50.834;6.286;2022-10-24T17:41:53;19.00;99.90
15143;DHT22;7672;50.834;6.286;2022-10-24T17:44:21;19.00;99.90
15143;DHT22;7672;50.834;6.286;2022-10-24T17:46:48;18.90;99.90
15143;DHT22;7672;50.834;6.286;2022-10-24T17:49:22;18.90;99.90
15143;DHT22;7672;50.834;6.286;2022-10-24T17:51:49;18.90;99.90
15143;DHT22;7672;50.834;6.286;2022-10-24T17:54:16;18.80;99.90
15143;DHT22;7672;50.834;6.286;2022-10-24T17:56:44;18.90;99.90
15143;DHT22;7672;50.834;6.286;2022-10-24T17:59:10;18.90;99.90
15143;DHT22;7672;50.834;6.286;2022-10-24T18:01:37;19.20;99.90
15143;DHT22;7672;50.834;6.286;2022-10-24T18:04:04;18.70;99.90
15143;DHT22;7672;50.834;6.286;2022-10-24T18:06:32;18.80;99.90
15143;DHT22;7672;50.834;6.286;2022-10-24T18:08:59;18.80;99.90